Terminal Aerodrome Forecast
Issued by NWS Austin/San Antonio, TX

Home | Current Version | Previous Version | Text Only | Print | Product List | Glossary On
Versions: 1 2 3 4 5 6 7 8 9 10 11 12 13 14 15 16 17 18 19 20 21 22 23 24 25 26 27 28 29 30 31 32 33 34
000
FTUS44 KEWX 272330
TAFAUS
TAF
KAUS 272330Z 2800/2906 06010KT P6SM SCT025 BKN120
     FM280100 15005KT P6SM SCT040
     FM280500 16005KT P6SM BKN015
      TEMPO 2812/2815 1SM BR OVC003
     FM281700 17008KT P6SM BKN040
     FM290300 13005KT P6SM OVC015=

USA.gov is the U.S. government's official web portal to all federal, state and local government web resources and services.